createdAt,value
2022-09-06T00:01:13.158Z,1.90
2022-09-06T00:03:41.903Z,1.80
2022-09-06T00:06:15.611Z,2.60
2022-09-06T00:11:13.655Z,3.20
2022-09-06T00:13:41.977Z,3.40
2022-09-06T00:16:13.531Z,3.00
2022-09-06T00:18:43.660Z,1.70
2022-09-06T00:21:22.039Z,2.50
2022-09-06T00:23:51.535Z,2.80
2022-09-06T00:26:21.331Z,4.90
2022-09-06T00:28:49.982Z,2.10
2022-09-06T00:31:24.144Z,2.90
2022-09-06T00:33:53.259Z,3.30
2022-09-06T00:36:22.815Z,3.00
2022-09-06T00:38:51.418Z,3.40
2022-09-06T00:41:20.096Z,3.50
2022-09-06T00:43:48.718Z,2.60
2022-09-06T00:46:25.773Z,3.50
2022-09-06T00:49:00.986Z,3.60
2022-09-06T00:51:31.198Z,3.80
2022-09-06T00:54:02.383Z,3.60
2022-09-06T00:56:32.527Z,3.90
2022-09-06T00:59:02.195Z,4.50
2022-09-06T01:01:31.049Z,2.40
2022-09-06T01:04:00.298Z,2.00
2022-09-06T01:07:05.694Z,3.10
2022-09-06T01:10:18.818Z,3.40
2022-09-06T01:12:56.197Z,3.10
2022-09-06T01:15:53.925Z,2.70
2022-09-06T01:18:48.491Z,3.50
2022-09-06T01:21:35.235Z,1.80
2022-09-06T01:24:09.725Z,3.90
2022-09-06T01:27:06.517Z,2.10
2022-09-06T01:29:43.913Z,1.80
2022-09-06T01:32:35.709Z,2.90
2022-09-06T01:35:33.267Z,1.70
2022-09-06T01:38:03.849Z,1.80
2022-09-06T01:40:36.704Z,1.90
2022-09-06T01:43:11.100Z,1.50
2022-09-06T01:46:22.825Z,1.60
2022-09-06T01:49:42.018Z,1.60
2022-09-06T01:52:20.675Z,1.50
2022-09-06T01:55:15.074Z,1.50
2022-09-06T01:57:50.705Z,2.00
2022-09-06T02:00:22.723Z,1.20
2022-09-06T02:02:54.955Z,2.40
2022-09-06T02:05:32.077Z,1.80
2022-09-06T02:08:16.382Z,3.10
2022-09-06T02:11:01.854Z,1.60
2022-09-06T02:13:36.938Z,3.30
2022-09-06T02:16:08.094Z,2.70
2022-09-06T02:18:43.193Z,1.70
2022-09-06T02:21:17.815Z,1.80
2022-09-06T02:23:48.897Z,1.40
2022-09-06T02:26:24.709Z,1.20
2022-09-06T02:28:53.429Z,2.80
2022-09-06T02:31:31.973Z,2.90
2022-09-06T02:34:01.568Z,1.40
2022-09-06T02:36:32.028Z,1.30
2022-09-06T02:39:02.375Z,1.90
2022-09-06T02:41:31.239Z,2.10
2022-09-06T02:43:59.598Z,2.00
2022-09-06T02:46:27.969Z,1.80
2022-09-06T02:48:56.401Z,1.00
2022-09-06T02:51:24.721Z,3.10
2022-09-06T02:53:53.149Z,1.70
2022-09-06T02:56:21.497Z,1.70
2022-09-06T02:58:50.161Z,1.40
2022-09-06T03:01:18.518Z,2.30
2022-09-06T03:03:46.919Z,1.00
2022-09-06T03:06:15.188Z,2.20
2022-09-06T03:08:43.684Z,2.20
2022-09-06T03:11:12.063Z,1.60
2022-09-06T03:13:40.507Z,2.60
2022-09-06T03:16:09.279Z,5.70
2022-09-06T03:18:37.616Z,1.40
2022-09-06T03:21:06.124Z,3.20
2022-09-06T03:23:34.580Z,2.10
2022-09-06T03:26:02.903Z,1.60
2022-09-06T03:28:31.347Z,1.50
2022-09-06T03:30:59.837Z,2.30
2022-09-06T03:33:28.363Z,3.00
2022-09-06T03:35:59.244Z,1.50
2022-09-06T03:38:28.747Z,1.70
2022-09-06T03:40:57.387Z,2.10
2022-09-06T03:43:26.907Z,2.30
2022-09-06T03:45:57.934Z,2.20
2022-09-06T03:48:29.008Z,1.70
2022-09-06T03:50:59.331Z,3.90
2022-09-06T03:53:29.097Z,2.30
2022-09-06T03:55:58.468Z,2.20
2022-09-06T03:58:31.195Z,1.70
2022-09-06T04:01:05.629Z,2.40
2022-09-06T04:03:35.071Z,10.60
2022-09-06T04:06:04.595Z,1.70
2022-09-06T04:08:34.500Z,2.00
2022-09-06T04:11:03.279Z,3.80
2022-09-06T04:13:32.933Z,2.30
2022-09-06T04:16:01.743Z,2.80
2022-09-06T04:18:30.427Z,5.90
2022-09-06T04:20:59.351Z,2.10
2022-09-06T04:23:29.075Z,3.50
2022-09-06T04:25:59.310Z,2.70
2022-09-06T04:28:28.270Z,2.70
2022-09-06T04:31:03.950Z,2.90
2022-09-06T04:33:35.203Z,1.80
2022-09-06T04:36:06.588Z,3.50
2022-09-06T04:38:40.409Z,4.80
2022-09-06T04:41:10.807Z,2.40
2022-09-06T04:43:39.443Z,1.90
2022-09-06T04:46:19.442Z,2.40
2022-09-06T04:48:49.283Z,3.50
2022-09-06T04:51:18.645Z,1.60
2022-09-06T04:53:47.676Z,2.80
2022-09-06T04:56:19.272Z,2.40
2022-09-06T04:58:49.715Z,2.30
2022-09-06T05:01:18.007Z,2.20
2022-09-06T05:03:47.444Z,5.10
2022-09-06T05:06:22.006Z,3.80
2022-09-06T05:08:51.039Z,1.90
2022-09-06T05:11:19.851Z,3.40
2022-09-06T05:13:48.283Z,2.60
2022-09-06T05:16:17.121Z,3.80
2022-09-06T05:18:45.393Z,3.60
2022-09-06T05:21:16.899Z,2.00
2022-09-06T05:23:45.255Z,2.50
2022-09-06T05:26:13.423Z,1.80
2022-09-06T05:28:41.651Z,4.60
2022-09-06T05:31:13.031Z,2.70
2022-09-06T05:33:41.230Z,3.90
2022-09-06T05:36:10.370Z,2.90
2022-09-06T05:38:38.589Z,1.60
2022-09-06T05:41:06.732Z,3.70
2022-09-06T05:43:34.955Z,5.40
2022-09-06T05:46:07.046Z,4.10
2022-09-06T05:48:37.239Z,7.00
2022-09-06T05:51:15.843Z,9.10
2022-09-06T05:53:45.779Z,9.30
2022-09-06T05:56:15.604Z,6.90
2022-09-06T05:58:44.075Z,7.50
2022-09-06T06:01:17.452Z,8.60
2022-09-06T06:03:57.663Z,8.40
2022-09-06T06:06:28.014Z,5.30
2022-09-06T06:08:56.855Z,4.80
2022-09-06T06:11:27.023Z,9.80
2022-09-06T06:13:55.412Z,4.70
2022-09-06T06:16:23.808Z,7.00
2022-09-06T06:18:52.825Z,6.40
2022-09-06T06:21:26.986Z,10.40
2022-09-06T06:23:58.539Z,8.20
2022-09-06T06:26:28.387Z,5.60
2022-09-06T06:28:59.079Z,4.40
2022-09-06T06:31:28.280Z,6.30
2022-09-06T06:33:56.764Z,4.30
2022-09-06T06:36:27.423Z,6.30
2022-09-06T06:38:56.184Z,2.90
2022-09-06T06:41:26.674Z,3.10
2022-09-06T06:43:56.830Z,5.60
2022-09-06T06:46:28.218Z,4.70
2022-09-06T06:48:56.529Z,8.70
2022-09-06T06:51:27.263Z,7.30
2022-09-06T06:54:00.187Z,5.00
2022-09-06T06:56:37.324Z,8.20
2022-09-06T06:59:07.996Z,8.50
2022-09-06T07:01:37.087Z,8.00
2022-09-06T07:04:05.988Z,3.80
2022-09-06T07:12:32.594Z,0.50
2022-09-06T07:15:01.016Z,1.60
2022-09-06T07:17:29.698Z,2.80
2022-09-06T07:20:14.134Z,1.90
2022-09-06T07:22:43.524Z,1.70
2022-09-06T07:25:17.625Z,1.30
2022-09-06T07:27:49.728Z,0.90
2022-09-06T07:30:20.319Z,1.20
2022-09-06T07:32:49.157Z,1.00
2022-09-06T07:35:17.776Z,1.20
2022-09-06T07:37:56.949Z,1.00
2022-09-06T07:40:27.102Z,0.90
2022-09-06T07:42:59.590Z,2.40
2022-09-06T07:45:27.992Z,1.80
2022-09-06T07:47:59.789Z,1.20
2022-09-06T07:50:47.502Z,0.90
2022-09-06T07:53:24.613Z,1.20
2022-09-06T07:55:58.114Z,1.80
2022-09-06T07:58:26.538Z,0.80
2022-09-06T08:00:54.992Z,1.70
2022-09-06T08:03:23.457Z,2.00
2022-09-06T08:11:27.872Z,1.20
2022-09-06T08:13:57.624Z,1.10
2022-09-06T08:16:28.289Z,2.40
2022-09-06T08:18:59.308Z,4.40
2022-09-06T08:21:30.775Z,1.20
2022-09-06T08:24:01.317Z,0.80
2022-09-06T08:26:31.976Z,0.70
2022-09-06T08:29:02.704Z,0.80
2022-09-06T08:31:32.856Z,0.80
2022-09-06T08:34:01.988Z,0.90
2022-09-06T08:36:31.104Z,1.00
2022-09-06T08:39:01.365Z,2.60
2022-09-06T08:42:03.860Z,2.60
2022-09-06T08:44:58.571Z,4.20
2022-09-06T08:47:27.414Z,1.80
2022-09-06T08:50:03.588Z,0.90
2022-09-06T08:53:20.474Z,2.10
2022-09-06T08:55:55.170Z,1.10
2022-09-06T08:58:40.982Z,1.90
2022-09-06T09:01:17.454Z,0.70
2022-09-06T09:03:47.202Z,3.20
2022-09-06T09:06:15.544Z,1.20
2022-09-06T09:09:02.191Z,2.30
2022-09-06T09:11:33.576Z,0.90
2022-09-06T09:14:23.452Z,2.60
2022-09-06T09:16:53.483Z,0.70
2022-09-06T09:19:22.012Z,1.40
2022-09-06T09:21:50.272Z,1.10
2022-09-06T09:24:18.507Z,2.20
2022-09-06T09:27:03.643Z,1.50
2022-09-06T09:29:36.144Z,1.60
2022-09-06T09:32:04.906Z,0.60
2022-09-06T09:34:38.948Z,2.00
2022-09-06T09:40:25.500Z,2.60
2022-09-06T09:42:57.772Z,1.10
2022-09-06T09:45:31.027Z,1.10
2022-09-06T09:48:17.683Z,0.90
2022-09-06T09:50:45.960Z,1.50
2022-09-06T09:53:17.256Z,1.60
2022-09-06T09:55:47.072Z,1.80
2022-09-06T09:58:35.848Z,1.90
2022-09-06T10:01:33.896Z,0.80
2022-09-06T10:07:15.867Z,3.10
2022-09-06T10:09:48.218Z,0.90
2022-09-06T10:12:32.672Z,0.40
2022-09-06T10:15:04.948Z,1.10
2022-09-06T10:17:52.034Z,1.10
2022-09-06T10:20:24.987Z,0.40
2022-09-06T10:23:13.975Z,1.90
2022-09-06T10:26:17.208Z,0.30
2022-09-06T10:28:47.243Z,0.90
2022-09-06T10:31:43.717Z,0.80
2022-09-06T10:34:31.336Z,1.10
2022-09-06T10:37:26.631Z,0.60
2022-09-06T10:40:08.839Z,1.40
2022-09-06T10:42:45.702Z,1.40
2022-09-06T10:45:33.183Z,1.20
2022-09-06T10:48:14.977Z,1.00
2022-09-06T10:50:48.371Z,0.30
2022-09-06T10:56:06.685Z,0.30
2022-09-06T11:01:41.609Z,0.90
2022-09-06T11:04:20.286Z,0.40
2022-09-06T11:06:53.567Z,0.50
2022-09-06T11:09:21.638Z,1.20
2022-09-06T11:12:16.099Z,0.90
2022-09-06T11:14:44.556Z,0.70
2022-09-06T11:17:26.538Z,0.80
2022-09-06T11:20:06.070Z,0.50
2022-09-06T11:22:46.891Z,0.30
2022-09-06T11:25:14.916Z,1.50
2022-09-06T11:27:47.152Z,0.80
2022-09-06T11:30:17.663Z,1.50
2022-09-06T11:32:50.346Z,0.50
2022-09-06T11:35:32.344Z,0.60
2022-09-06T11:38:26.728Z,2.00
2022-09-06T11:41:02.801Z,1.70
2022-09-06T11:43:47.378Z,0.30
2022-09-06T11:46:33.922Z,1.20
2022-09-06T11:49:35.454Z,0.60
2022-09-06T11:52:52.388Z,0.70
2022-09-06T11:55:25.154Z,1.40
2022-09-06T11:57:57.275Z,0.40
2022-09-06T12:00:27.812Z,1.30
2022-09-06T12:06:19.299Z,1.00
2022-09-06T12:08:50.446Z,2.20
2022-09-06T12:11:37.514Z,0.80
2022-09-06T12:14:09.659Z,1.20
2022-09-06T12:16:55.970Z,1.00
2022-09-06T12:19:47.918Z,2.60
2022-09-06T12:22:36.009Z,0.50
2022-09-06T12:25:08.083Z,1.20
2022-09-06T12:27:50.190Z,1.90
2022-09-06T12:30:42.244Z,1.40
2022-09-06T12:33:19.454Z,0.90
2022-09-06T12:38:25.444Z,1.10
2022-09-06T12:40:59.255Z,2.70
2022-09-06T12:43:27.721Z,0.80
2022-09-06T12:45:56.461Z,0.60
2022-09-06T12:48:33.794Z,1.30
2022-09-06T12:51:08.190Z,1.70
2022-09-06T12:53:37.109Z,1.00
2022-09-06T12:56:08.029Z,0.80
2022-09-06T12:58:38.910Z,0.50
2022-09-06T13:01:16.837Z,0.90
2022-09-06T13:04:16.561Z,2.30
2022-09-06T13:06:47.846Z,0.40
2022-09-06T13:09:20.654Z,1.10
2022-09-06T13:11:52.422Z,1.20
2022-09-06T13:14:29.961Z,1.60
2022-09-06T13:16:58.469Z,0.70
2022-09-06T13:19:37.521Z,0.60
2022-09-06T13:22:08.458Z,0.90
2022-09-06T13:24:43.309Z,0.90
2022-09-06T13:27:23.170Z,0.50
2022-09-06T13:30:04.058Z,0.50
2022-09-06T13:32:34.186Z,0.50
2022-09-06T13:35:04.533Z,0.80
2022-09-06T13:37:35.870Z,0.70
2022-09-06T13:41:15.878Z,0.50
2022-09-06T13:43:48.734Z,0.80
2022-09-06T13:46:17.207Z,0.50
2022-09-06T13:48:45.789Z,0.90
2022-09-06T13:51:14.152Z,2.10
2022-09-06T13:53:42.474Z,1.60
2022-09-06T13:56:12.169Z,1.40
2022-09-06T13:58:40.481Z,0.70
2022-09-06T14:01:11.751Z,0.70
2022-09-06T14:03:42.346Z,1.20
2022-09-06T14:06:11.017Z,0.60
2022-09-06T14:09:05.433Z,0.60
2022-09-06T14:11:28.321Z,1.30
2022-09-06T14:13:56.835Z,0.60
2022-09-06T14:16:25.480Z,3.20
2022-09-06T14:18:53.882Z,1.10
2022-09-06T14:21:22.717Z,0.50
2022-09-06T14:23:52.845Z,1.10
2022-09-06T14:26:23.332Z,1.10
2022-09-06T14:28:51.798Z,1.20
2022-09-06T14:31:23.118Z,1.40
2022-09-06T14:33:52.547Z,1.40
2022-09-06T14:36:23.611Z,1.00
2022-09-06T14:38:53.085Z,1.30
2022-09-06T14:41:21.809Z,1.20
2022-09-06T14:43:54.478Z,0.80
2022-09-06T14:46:24.282Z,1.40
2022-09-06T14:49:06.230Z,0.70
2022-09-06T14:51:35.661Z,0.80
2022-09-06T14:54:09.770Z,1.50
2022-09-06T14:56:40.566Z,0.70
2022-09-06T14:59:09.420Z,0.50
2022-09-06T15:01:39.716Z,3.40
2022-09-06T15:04:10.306Z,2.00
2022-09-06T15:06:40.858Z,3.30
2022-09-06T15:09:11.732Z,0.80
2022-09-06T15:11:42.004Z,0.70
2022-09-06T15:14:19.067Z,2.00
2022-09-06T15:16:54.774Z,0.90
2022-09-06T15:19:26.039Z,1.40
2022-09-06T15:21:55.719Z,1.60
2022-09-06T15:24:24.630Z,0.70
2022-09-06T15:26:53.783Z,0.60
2022-09-06T15:29:22.766Z,0.90
2022-09-06T15:31:52.063Z,0.80
2022-09-06T15:34:22.438Z,2.20
2022-09-06T15:36:52.107Z,0.80
2022-09-06T15:39:21.467Z,0.60
2022-09-06T15:41:52.391Z,1.20
2022-09-06T15:44:21.837Z,1.10
2022-09-06T15:46:53.492Z,1.40
2022-09-06T15:49:28.520Z,0.50
2022-09-06T15:52:02.326Z,0.70
2022-09-06T15:54:49.417Z,1.80
2022-09-06T15:57:17.892Z,1.90
2022-09-06T15:59:46.553Z,2.10
2022-09-06T16:02:14.981Z,3.40
2022-09-06T16:04:43.412Z,1.80
2022-09-06T16:07:12.040Z,1.70
2022-09-06T16:09:40.668Z,4.00
2022-09-06T16:12:09.963Z,1.60
2022-09-06T16:14:38.351Z,1.90
2022-09-06T16:17:06.752Z,4.00
2022-09-06T16:19:35.301Z,2.40
2022-09-06T16:22:04.537Z,1.10
2022-09-06T16:24:33.076Z,2.60
2022-09-06T16:27:01.534Z,2.00
2022-09-06T16:29:30.552Z,2.00
2022-09-06T16:32:00.819Z,2.20
2022-09-06T16:34:29.418Z,3.90
2022-09-06T16:36:57.846Z,1.30
2022-09-06T16:39:26.354Z,2.20
2022-09-06T16:41:54.819Z,1.30
2022-09-06T16:44:23.164Z,4.80
2022-09-06T16:46:53.151Z,2.30
2022-09-06T16:49:22.039Z,5.20
2022-09-06T16:51:50.811Z,1.60
2022-09-06T16:54:19.791Z,1.80
2022-09-06T16:56:48.545Z,2.00
2022-09-06T16:59:17.545Z,2.30
2022-09-06T17:01:47.140Z,2.00
2022-09-06T17:04:15.797Z,1.40
2022-09-06T17:06:44.920Z,1.60
2022-09-06T17:09:20.158Z,1.60
2022-09-06T17:11:52.016Z,4.40
2022-09-06T17:14:20.351Z,5.60
2022-09-06T17:17:07.649Z,2.30
2022-09-06T17:19:44.124Z,2.20
2022-09-06T17:22:13.229Z,1.30
2022-09-06T17:24:42.182Z,4.00
2022-09-06T17:27:10.629Z,3.90
2022-09-06T17:29:40.293Z,2.50
2022-09-06T17:32:11.608Z,1.70
2022-09-06T17:34:40.308Z,3.70
2022-09-06T17:37:08.763Z,4.30
2022-09-06T17:39:37.572Z,4.10
2022-09-06T17:42:06.420Z,2.80
2022-09-06T17:44:35.400Z,2.20
2022-09-06T17:47:13.338Z,2.20
2022-09-06T17:49:42.779Z,2.90
2022-09-06T17:52:11.903Z,2.50
2022-09-06T17:54:40.284Z,2.80
2022-09-06T17:57:08.668Z,2.90
2022-09-06T17:59:38.353Z,2.30
2022-09-06T18:02:06.809Z,4.30
2022-09-06T18:04:35.374Z,3.30
2022-09-06T18:07:03.856Z,3.20
2022-09-06T18:09:32.312Z,1.80
2022-09-06T18:12:01.135Z,3.00
2022-09-06T18:14:29.737Z,2.90
2022-09-06T18:16:58.147Z,2.10
2022-09-06T18:19:27.685Z,1.80
2022-09-06T18:21:57.515Z,2.40
2022-09-06T18:24:26.606Z,2.50
2022-09-06T18:26:55.805Z,2.20
2022-09-06T18:29:24.180Z,3.90
2022-09-06T18:31:54.296Z,2.50
2022-09-06T18:34:23.045Z,2.80
2022-09-06T18:36:51.640Z,2.70
2022-09-06T18:39:20.537Z,2.70
2022-09-06T18:42:00.972Z,2.50
2022-09-06T18:44:32.505Z,3.40
2022-09-06T18:47:03.429Z,2.20
2022-09-06T18:49:33.827Z,2.40
2022-09-06T18:52:06.379Z,5.00
2022-09-06T18:54:35.234Z,2.80
2022-09-06T18:57:04.189Z,3.70
2022-09-06T18:59:32.419Z,1.60
2022-09-06T19:02:00.690Z,1.80
2022-09-06T19:04:29.259Z,1.60
2022-09-06T19:06:57.706Z,2.40
2022-09-06T19:09:26.528Z,5.10
2022-09-06T19:11:55.909Z,4.30
2022-09-06T19:14:24.517Z,2.30
2022-09-06T19:16:54.295Z,4.20
2022-09-06T19:19:23.405Z,2.50
2022-09-06T19:21:51.715Z,2.40
2022-09-06T19:24:22.927Z,4.40
2022-09-06T19:26:52.991Z,2.00
2022-09-06T19:29:21.714Z,3.40
2022-09-06T19:31:50.168Z,2.10
2022-09-06T19:34:19.075Z,2.40
2022-09-06T19:36:47.314Z,2.20
2022-09-06T19:39:16.885Z,1.90
2022-09-06T19:41:47.641Z,3.50
2022-09-06T19:44:17.302Z,3.30
2022-09-06T19:46:47.562Z,1.90
2022-09-06T19:49:17.797Z,2.50
2022-09-06T19:51:49.004Z,3.90
2022-09-06T19:54:18.245Z,2.80
2022-09-06T19:56:52.150Z,9.60
2022-09-06T19:59:21.881Z,2.50
2022-09-06T20:01:50.339Z,3.60
2022-09-06T20:04:20.098Z,3.70
2022-09-06T20:06:48.343Z,2.40
2022-09-06T20:09:16.786Z,2.00
2022-09-06T20:11:46.622Z,3.80
2022-09-06T20:14:15.074Z,3.90
2022-09-06T20:16:43.391Z,2.10
2022-09-06T20:19:12.984Z,2.00
2022-09-06T20:21:41.530Z,2.60
2022-09-06T20:24:09.802Z,5.50
2022-09-06T20:26:38.176Z,3.30
2022-09-06T20:29:08.184Z,3.20
2022-09-06T20:31:38.155Z,2.10
2022-09-06T20:34:07.533Z,5.00
2022-09-06T20:36:36.331Z,3.20
2022-09-06T20:39:05.946Z,2.90
2022-09-06T20:41:34.209Z,2.00
2022-09-06T20:44:02.842Z,2.70
2022-09-06T20:46:34.056Z,2.00
2022-09-06T20:49:04.965Z,3.20
2022-09-06T20:51:35.478Z,1.50
2022-09-06T20:54:05.366Z,6.20
2022-09-06T20:56:36.730Z,4.30
2022-09-06T20:59:10.509Z,5.00
2022-09-06T21:04:13.113Z,2.90
2022-09-06T21:06:42.349Z,3.70
2022-09-06T21:09:13.438Z,2.00
2022-09-06T21:11:42.774Z,2.60
2022-09-06T21:14:11.902Z,2.90
2022-09-06T21:16:40.928Z,2.30
2022-09-06T21:19:10.566Z,4.40
2022-09-06T21:21:39.909Z,2.40
2022-09-06T21:24:11.053Z,2.20
2022-09-06T21:26:39.518Z,3.70
2022-09-06T21:29:07.896Z,2.60
2022-09-06T21:31:37.856Z,3.10
2022-09-06T21:34:15.567Z,2.50
2022-09-06T21:36:45.664Z,3.30
2022-09-06T21:39:15.073Z,2.20
2022-09-06T21:41:43.891Z,3.60
2022-09-06T21:44:13.199Z,2.50
2022-09-06T21:46:43.830Z,3.60
2022-09-06T21:49:14.277Z,2.30
2022-09-06T21:51:43.832Z,3.70
2022-09-06T21:54:12.456Z,3.20
2022-09-06T21:56:41.567Z,2.70
2022-09-06T21:59:11.178Z,3.20
2022-09-06T22:01:41.075Z,3.00
2022-09-06T22:04:10.634Z,2.70
2022-09-06T22:06:39.102Z,4.10
2022-09-06T22:09:11.670Z,3.00
2022-09-06T22:11:42.921Z,2.50
2022-09-06T22:14:13.945Z,4.30
2022-09-06T22:16:42.759Z,4.70
2022-09-06T22:19:11.900Z,4.10
2022-09-06T22:21:40.746Z,4.60
2022-09-06T22:24:11.893Z,4.50
2022-09-06T22:26:41.274Z,2.90
2022-09-06T22:29:11.798Z,3.00
2022-09-06T22:31:41.041Z,2.80
2022-09-06T22:34:10.700Z,3.20
2022-09-06T22:36:40.152Z,3.50
2022-09-06T22:39:09.716Z,2.00
2022-09-06T22:41:38.343Z,3.30
2022-09-06T22:44:07.497Z,4.60
2022-09-06T22:46:37.515Z,2.90
2022-09-06T22:49:06.472Z,2.40
2022-09-06T22:51:35.418Z,1.80
2022-09-06T22:54:04.812Z,2.20
2022-09-06T22:56:33.756Z,2.80
2022-09-06T22:59:02.678Z,2.00
2022-09-06T23:01:32.895Z,2.10
2022-09-06T23:04:01.406Z,3.50
2022-09-06T23:06:30.250Z,1.90
2022-09-06T23:08:59.450Z,2.20
2022-09-06T23:11:28.745Z,2.30
2022-09-06T23:13:58.837Z,3.80
2022-09-06T23:16:28.546Z,1.90
2022-09-06T23:18:57.025Z,1.70
2022-09-06T23:21:26.155Z,3.10
2022-09-06T23:23:56.461Z,3.00
2022-09-06T23:26:29.092Z,2.00
2022-09-06T23:28:58.393Z,3.00
2022-09-06T23:31:29.654Z,2.00
2022-09-06T23:34:00.914Z,2.50
2022-09-06T23:36:29.737Z,3.30
2022-09-06T23:38:58.751Z,2.00
2022-09-06T23:41:27.168Z,3.30
2022-09-06T23:43:55.528Z,1.70
2022-09-06T23:46:23.870Z,2.90
2022-09-06T23:48:52.931Z,1.60
2022-09-06T23:51:22.304Z,2.00
2022-09-06T23:53:50.826Z,3.10
2022-09-06T23:56:19.512Z,1.40
2022-09-06T23:58:47.858Z,2.20
